sensor_id;sensor_type;location;lat;lon;timestamp;pressure;altitude;pressure_sealevel;temperature
24714;BMP280;12820;51.580;5.010;2023-08-07T00:02:43;101383.34;;;16.95
24714;BMP280;12820;51.580;5.010;2023-08-07T00:07:45;101389.25;;;16.96
24714;BMP280;12820;51.580;5.010;2023-08-07T00:12:48;101380.75;;;16.97
24714;BMP280;12820;51.580;5.010;2023-08-07T00:17:50;101384.13;;;16.97
24714;BMP280;12820;51.580;5.010;2023-08-07T00:22:52;101386.69;;;16.97
24714;BMP280;12820;51.580;5.010;2023-08-07T00:27:54;101385.84;;;16.97
24714;BMP280;12820;51.580;5.010;2023-08-07T00:32:57;101381.59;;;16.97
24714;BMP280;12820;51.580;5.010;2023-08-07T00:37:59;101379.09;;;16.96
24714;BMP280;12820;51.580;5.010;2023-08-07T00:43:02;101386.59;;;16.99
24714;BMP280;12820;51.580;5.010;2023-08-07T00:48:04;101392.53;;;16.99
24714;BMP280;12820;51.580;5.010;2023-08-07T00:53:07;101385.72;;;17.00
24714;BMP280;12820;51.580;5.010;2023-08-07T00:58:10;101396.69;;;17.02
24714;BMP280;12820;51.580;5.010;2023-08-07T01:03:12;101399.22;;;17.02
24714;BMP280;12820;51.580;5.010;2023-08-07T01:08:17;101398.41;;;17.01
24714;BMP280;12820;51.580;5.010;2023-08-07T01:13:28;101409.38;;;17.02
24714;BMP280;12820;51.580;5.010;2023-08-07T01:18:31;101406.84;;;17.02
24714;BMP280;12820;51.580;5.010;2023-08-07T01:23:33;101428.88;;;17.01
24714;BMP280;12820;51.580;5.010;2023-08-07T01:28:44;101434.13;;;16.95
24714;BMP280;12820;51.580;5.010;2023-08-07T01:33:53;101409.72;;;16.90
24714;BMP280;12820;51.580;5.010;2023-08-07T01:38:57;101424.25;;;16.85
24714;BMP280;12820;51.580;5.010;2023-08-07T01:44:01;101412.56;;;16.80
24714;BMP280;12820;51.580;5.010;2023-08-07T01:49:04;101400.84;;;16.76
24714;BMP280;12820;51.580;5.010;2023-08-07T01:54:06;101407.69;;;16.74
24714;BMP280;12820;51.580;5.010;2023-08-07T01:59:08;101405.22;;;16.71
24714;BMP280;12820;51.580;5.010;2023-08-07T02:04:11;101407.81;;;16.70
24714;BMP280;12820;51.580;5.010;2023-08-07T02:09:13;101410.34;;;16.70
24714;BMP280;12820;51.580;5.010;2023-08-07T02:14:15;101412.13;;;16.68
24714;BMP280;12820;51.580;5.010;2023-08-07T02:19:17;101420.59;;;16.67
24714;BMP280;12820;51.580;5.010;2023-08-07T02:24:19;101413.84;;;16.66
24714;BMP280;12820;51.580;5.010;2023-08-07T02:29:22;101413.00;;;16.65
24714;BMP280;12820;51.580;5.010;2023-08-07T02:34:25;101417.22;;;16.66
24714;BMP280;12820;51.580;5.010;2023-08-07T02:39:27;101427.34;;;16.68
24714;BMP280;12820;51.580;5.010;2023-08-07T02:44:29;101417.97;;;16.70
24714;BMP280;12820;51.580;5.010;2023-08-07T02:49:31;101418.75;;;16.71
24714;BMP280;12820;51.580;5.010;2023-08-07T02:54:33;101418.66;;;16.74
24714;BMP280;12820;51.580;5.010;2023-08-07T02:59:36;101416.91;;;16.76
24714;BMP280;12820;51.580;5.010;2023-08-07T03:04:38;101414.34;;;16.78
24714;BMP280;12820;51.580;5.010;2023-08-07T03:09:40;101418.47;;;16.80
24714;BMP280;12820;51.580;5.010;2023-08-07T03:14:42;101410.81;;;16.82
24714;BMP280;12820;51.580;5.010;2023-08-07T03:19:44;101414.09;;;16.85
24714;BMP280;12820;51.580;5.010;2023-08-07T03:24:47;101414.97;;;16.84
24714;BMP280;12820;51.580;5.010;2023-08-07T03:29:50;101414.09;;;16.85
24714;BMP280;12820;51.580;5.010;2023-08-07T03:34:53;101414.09;;;16.85
24714;BMP280;12820;51.580;5.010;2023-08-07T03:39:56;101433.53;;;16.86
24714;BMP280;12820;51.580;5.010;2023-08-07T03:44:59;101418.28;;;16.88
24714;BMP280;12820;51.580;5.010;2023-08-07T03:50:01;101436.03;;;16.88
24714;BMP280;12820;51.580;5.010;2023-08-07T03:55:05;101435.22;;;16.87
24714;BMP280;12820;51.580;5.010;2023-08-07T04:00:08;101432.72;;;16.86
24714;BMP280;12820;51.580;5.010;2023-08-07T04:05:16;101436.94;;;16.85
24714;BMP280;12820;51.580;5.010;2023-08-07T04:10:19;101433.66;;;16.83
24714;BMP280;12820;51.580;5.010;2023-08-07T04:15:21;101448.88;;;16.83
24714;BMP280;12820;51.580;5.010;2023-08-07T04:20:23;101456.53;;;16.82
24714;BMP280;12820;51.580;5.010;2023-08-07T04:25:25;101458.13;;;16.84
24714;BMP280;12820;51.580;5.010;2023-08-07T04:30:27;101450.50;;;16.84
24714;BMP280;12820;51.580;5.010;2023-08-07T04:35:29;101453.16;;;16.81
24714;BMP280;12820;51.580;5.010;2023-08-07T04:40:31;101448.94;;;16.80
24714;BMP280;12820;51.580;5.010;2023-08-07T04:45:33;101448.13;;;16.80
24714;BMP280;12820;51.580;5.010;2023-08-07T04:50:38;101458.28;;;16.80
24714;BMP280;12820;51.580;5.010;2023-08-07T04:55:41;101460.03;;;16.78
24714;BMP280;12820;51.580;5.010;2023-08-07T05:00:43;101454.91;;;16.79
24714;BMP280;12820;51.580;5.010;2023-08-07T05:05:45;101469.25;;;16.80
24714;BMP280;12820;51.580;5.010;2023-08-07T05:10:48;101468.28;;;16.84
24714;BMP280;12820;51.580;5.010;2023-08-07T05:15:50;101462.28;;;16.88
24714;BMP280;12820;51.580;5.010;2023-08-07T05:20:52;101467.19;;;16.94
24714;BMP280;12820;51.580;5.010;2023-08-07T05:25:54;101471.09;;;17.04
24714;BMP280;12820;51.580;5.010;2023-08-07T05:30:56;101480.94;;;17.14
24714;BMP280;12820;51.580;5.010;2023-08-07T05:35:59;101484.16;;;17.20
24714;BMP280;12820;51.580;5.010;2023-08-07T05:41:01;101492.34;;;17.28
24714;BMP280;12820;51.580;5.010;2023-08-07T05:46:03;101498.94;;;17.35
24714;BMP280;12820;51.580;5.010;2023-08-07T05:51:05;101503.72;;;17.43
24714;BMP280;12820;51.580;5.010;2023-08-07T05:56:08;101514.41;;;17.54
24714;BMP280;12820;51.580;5.010;2023-08-07T06:01:11;101516.53;;;17.66
24714;BMP280;12820;51.580;5.010;2023-08-07T06:06:13;101510.25;;;17.77
24714;BMP280;12820;51.580;5.010;2023-08-07T06:11:15;101526.81;;;17.88
24714;BMP280;12820;51.580;5.010;2023-08-07T06:16:17;101523.94;;;17.98
24714;BMP280;12820;51.580;5.010;2023-08-07T06:21:19;101522.72;;;18.10
24714;BMP280;12820;51.580;5.010;2023-08-07T06:26:22;101525.81;;;18.17
24714;BMP280;12820;51.580;5.010;2023-08-07T06:31:24;101521.19;;;18.28
24714;BMP280;12820;51.580;5.010;2023-08-07T06:36:26;101526.66;;;18.42
24714;BMP280;12820;51.580;5.010;2023-08-07T06:41:29;101537.13;;;18.57
24714;BMP280;12820;51.580;5.010;2023-08-07T06:46:31;101528.94;;;18.73
24714;BMP280;12820;51.580;5.010;2023-08-07T06:51:33;101536.03;;;18.87
24714;BMP280;12820;51.580;5.010;2023-08-07T06:56:35;101546.44;;;19.04
24714;BMP280;12820;51.580;5.010;2023-08-07T07:01:40;101540.63;;;19.21
24714;BMP280;12820;51.580;5.010;2023-08-07T07:06:43;101537.47;;;19.38
24714;BMP280;12820;51.580;5.010;2023-08-07T07:11:45;101546.59;;;19.43
24714;BMP280;12820;51.580;5.010;2023-08-07T07:16:49;101564.50;;;19.41
24714;BMP280;12820;51.580;5.010;2023-08-07T07:21:51;101557.06;;;19.36
24714;BMP280;12820;51.580;5.010;2023-08-07T07:26:54;101564.13;;;19.29
24714;BMP280;12820;51.580;5.010;2023-08-07T07:31:56;101574.69;;;19.21
24714;BMP280;12820;51.580;5.010;2023-08-07T07:37:03;101576.88;;;19.07
24714;BMP280;12820;51.580;5.010;2023-08-07T07:42:07;101570.44;;;18.97
24714;BMP280;12820;51.580;5.010;2023-08-07T07:47:09;101571.53;;;18.92
24714;BMP280;12820;51.580;5.010;2023-08-07T07:52:15;101572.28;;;18.94
24714;BMP280;12820;51.580;5.010;2023-08-07T07:57:17;101570.38;;;19.00
24714;BMP280;12820;51.580;5.010;2023-08-07T08:02:20;101587.06;;;19.07
24714;BMP280;12820;51.580;5.010;2023-08-07T08:07:23;101591.63;;;19.21
24714;BMP280;12820;51.580;5.010;2023-08-07T08:12:25;101602.06;;;19.37
24714;BMP280;12820;51.580;5.010;2023-08-07T08:17:27;101603.03;;;19.57
24714;BMP280;12820;51.580;5.010;2023-08-07T08:22:29;101619.16;;;19.78
24714;BMP280;12820;51.580;5.010;2023-08-07T08:27:32;101623.28;;;19.82
24714;BMP280;12820;51.580;5.010;2023-08-07T08:32:34;101628.47;;;19.79
24714;BMP280;12820;51.580;5.010;2023-08-07T08:37:36;101623.66;;;19.92
24714;BMP280;12820;51.580;5.010;2023-08-07T08:42:39;101625.75;;;20.04
24714;BMP280;12820;51.580;5.010;2023-08-07T08:47:42;101624.91;;;20.25
24714;BMP280;12820;51.580;5.010;2023-08-07T08:52:51;101633.50;;;20.43
24714;BMP280;12820;51.580;5.010;2023-08-07T08:57:53;101638.16;;;20.53
24714;BMP280;12820;51.580;5.010;2023-08-07T09:02:55;101623.16;;;20.65
24714;BMP280;12820;51.580;5.010;2023-08-07T09:07:58;101632.34;;;20.69
24714;BMP280;12820;51.580;5.010;2023-08-07T09:13:02;101628.88;;;20.90
24714;BMP280;12820;51.580;5.010;2023-08-07T09:18:07;101641.81;;;20.87
24714;BMP280;12820;51.580;5.010;2023-08-07T09:23:09;101637.13;;;20.96
24714;BMP280;12820;51.580;5.010;2023-08-07T09:28:11;101638.69;;;21.18
24714;BMP280;12820;51.580;5.010;2023-08-07T09:33:14;101641.81;;;21.42
24714;BMP280;12820;51.580;5.010;2023-08-07T09:38:16;101647.25;;;21.35
24714;BMP280;12820;51.580;5.010;2023-08-07T09:43:22;101650.25;;;21.44
24714;BMP280;12820;51.580;5.010;2023-08-07T09:48:25;101647.75;;;21.61
24714;BMP280;12820;51.580;5.010;2023-08-07T09:53:30;101656.75;;;21.87
24714;BMP280;12820;51.580;5.010;2023-08-07T09:58:33;101663.09;;;21.97
24714;BMP280;12820;51.580;5.010;2023-08-07T10:03:36;101650.47;;;22.10
24714;BMP280;12820;51.580;5.010;2023-08-07T10:08:39;101661.34;;;22.32
24714;BMP280;12820;51.580;5.010;2023-08-07T10:13:42;101693.16;;;22.44
24714;BMP280;12820;51.580;5.010;2023-08-07T10:18:45;101666.28;;;22.86
24714;BMP280;12820;51.580;5.010;2023-08-07T10:23:48;101675.13;;;24.63
24714;BMP280;12820;51.580;5.010;2023-08-07T10:28:52;101661.22;;;26.27
24714;BMP280;12820;51.580;5.010;2023-08-07T10:33:55;101666.19;;;27.88
24714;BMP280;12820;51.580;5.010;2023-08-07T10:39:08;101652.50;;;29.42
24714;BMP280;12820;51.580;5.010;2023-08-07T10:44:18;101654.81;;;29.56
24714;BMP280;12820;51.580;5.010;2023-08-07T10:49:30;101657.44;;;30.98
24714;BMP280;12820;51.580;5.010;2023-08-07T10:54:54;101674.81;;;28.79
24714;BMP280;12820;51.580;5.010;2023-08-07T11:04:59;101671.69;;;28.07
24714;BMP280;12820;51.580;5.010;2023-08-07T11:10:01;101681.53;;;28.25
24714;BMP280;12820;51.580;5.010;2023-08-07T11:15:04;101673.97;;;29.96
24714;BMP280;12820;51.580;5.010;2023-08-07T11:20:06;101654.13;;;33.47
24714;BMP280;12820;51.580;5.010;2023-08-07T11:25:09;101648.91;;;35.16
24714;BMP280;12820;51.580;5.010;2023-08-07T11:30:13;101647.66;;;33.94
24714;BMP280;12820;51.580;5.010;2023-08-07T11:35:15;101665.13;;;31.00
24714;BMP280;12820;51.580;5.010;2023-08-07T11:40:17;101663.63;;;28.78
24714;BMP280;12820;51.580;5.010;2023-08-07T11:45:19;101660.72;;;29.36
24714;BMP280;12820;51.580;5.010;2023-08-07T11:50:22;101657.00;;;32.09
24714;BMP280;12820;51.580;5.010;2023-08-07T11:55:24;101662.69;;;31.84
24714;BMP280;12820;51.580;5.010;2023-08-07T12:00:28;101662.31;;;29.91
24714;BMP280;12820;51.580;5.010;2023-08-07T12:05:38;101676.63;;;28.10
24714;BMP280;12820;51.580;5.010;2023-08-07T12:10:42;101684.47;;;27.02
24714;BMP280;12820;51.580;5.010;2023-08-07T12:15:46;101679.44;;;26.24
24714;BMP280;12820;51.580;5.010;2023-08-07T12:20:49;101677.56;;;25.88
24714;BMP280;12820;51.580;5.010;2023-08-07T12:25:52;101678.19;;;25.78
24714;BMP280;12820;51.580;5.010;2023-08-07T12:30:56;101685.81;;;25.40
24714;BMP280;12820;51.580;5.010;2023-08-07T12:35:59;101688.66;;;25.22
24714;BMP280;12820;51.580;5.010;2023-08-07T12:41:02;101680.56;;;25.42
24714;BMP280;12820;51.580;5.010;2023-08-07T12:46:05;101672.59;;;25.85
24714;BMP280;12820;51.580;5.010;2023-08-07T12:51:10;101674.13;;;26.02
24714;BMP280;12820;51.580;5.010;2023-08-07T12:56:12;101659.66;;;26.63
24714;BMP280;12820;51.580;5.010;2023-08-07T13:01:14;101657.44;;;28.01
24714;BMP280;12820;51.580;5.010;2023-08-07T13:06:17;101656.06;;;30.94
24714;BMP280;12820;51.580;5.010;2023-08-07T13:11:19;101651.66;;;32.56
24714;BMP280;12820;51.580;5.010;2023-08-07T13:16:21;101656.16;;;31.90
24714;BMP280;12820;51.580;5.010;2023-08-07T13:21:23;101656.94;;;30.84
24714;BMP280;12820;51.580;5.010;2023-08-07T13:26:26;101658.03;;;31.02
24714;BMP280;12820;51.580;5.010;2023-08-07T13:31:28;101651.53;;;30.87
24714;BMP280;12820;51.580;5.010;2023-08-07T13:36:30;101658.69;;;30.13
24714;BMP280;12820;51.580;5.010;2023-08-07T13:41:33;101663.72;;;30.56
24714;BMP280;12820;51.580;5.010;2023-08-07T13:46:35;101676.38;;;31.09
24714;BMP280;12820;51.580;5.010;2023-08-07T13:51:41;101654.66;;;31.40
24714;BMP280;12820;51.580;5.010;2023-08-07T13:56:43;101657.94;;;30.22
24714;BMP280;12820;51.580;5.010;2023-08-07T14:01:45;101663.03;;;28.86
24714;BMP280;12820;51.580;5.010;2023-08-07T14:06:48;101660.53;;;27.94
24714;BMP280;12820;51.580;5.010;2023-08-07T14:11:51;101671.81;;;28.72
24714;BMP280;12820;51.580;5.010;2023-08-07T14:16:53;101672.72;;;28.84
24714;BMP280;12820;51.580;5.010;2023-08-07T14:21:58;101673.47;;;27.47
24714;BMP280;12820;51.580;5.010;2023-08-07T14:27:01;101681.34;;;26.60
24714;BMP280;12820;51.580;5.010;2023-08-07T14:32:03;101676.94;;;26.37
24714;BMP280;12820;51.580;5.010;2023-08-07T14:37:05;101682.38;;;26.94
24714;BMP280;12820;51.580;5.010;2023-08-07T14:42:08;101680.50;;;27.57
24714;BMP280;12820;51.580;5.010;2023-08-07T14:47:10;101674.13;;;27.50
24714;BMP280;12820;51.580;5.010;2023-08-07T14:52:12;101692.91;;;26.91
24714;BMP280;12820;51.580;5.010;2023-08-07T14:57:14;101675.38;;;27.09
24714;BMP280;12820;51.580;5.010;2023-08-07T15:02:16;101677.34;;;28.12
24714;BMP280;12820;51.580;5.010;2023-08-07T15:07:18;101683.56;;;28.32
24714;BMP280;12820;51.580;5.010;2023-08-07T15:12:21;101672.50;;;29.19
24714;BMP280;12820;51.580;5.010;2023-08-07T15:17:23;101668.75;;;29.33
24714;BMP280;12820;51.580;5.010;2023-08-07T15:22:25;101685.50;;;28.52
24714;BMP280;12820;51.580;5.010;2023-08-07T15:27:27;101680.91;;;27.51
24714;BMP280;12820;51.580;5.010;2023-08-07T15:32:29;101693.06;;;27.14
24714;BMP280;12820;51.580;5.010;2023-08-07T15:37:32;101686.94;;;27.40
24714;BMP280;12820;51.580;5.010;2023-08-07T15:42:34;101689.88;;;27.82
24714;BMP280;12820;51.580;5.010;2023-08-07T15:47:36;101686.44;;;28.40
24714;BMP280;12820;51.580;5.010;2023-08-07T15:52:38;101676.84;;;28.63
24714;BMP280;12820;51.580;5.010;2023-08-07T15:57:41;101685.31;;;28.09
24714;BMP280;12820;51.580;5.010;2023-08-07T16:02:43;101682.13;;;27.82
24714;BMP280;12820;51.580;5.010;2023-08-07T16:07:46;101682.38;;;28.13
24714;BMP280;12820;51.580;5.010;2023-08-07T16:12:52;101670.81;;;28.18
24714;BMP280;12820;51.580;5.010;2023-08-07T16:17:54;101674.72;;;28.24
24714;BMP280;12820;51.580;5.010;2023-08-07T16:22:56;101682.63;;;27.87
24714;BMP280;12820;51.580;5.010;2023-08-07T16:27:59;101683.03;;;27.34
24714;BMP280;12820;51.580;5.010;2023-08-07T16:33:01;101673.19;;;26.91
24714;BMP280;12820;51.580;5.010;2023-08-07T16:38:03;101668.63;;;26.45
24714;BMP280;12820;51.580;5.010;2023-08-07T16:43:05;101668.53;;;26.21
24714;BMP280;12820;51.580;5.010;2023-08-07T16:48:09;101655.50;;;25.84
24714;BMP280;12820;51.580;5.010;2023-08-07T16:53:11;101661.91;;;25.91
24714;BMP280;12820;51.580;5.010;2023-08-07T16:58:13;101663.03;;;26.13
24714;BMP280;12820;51.580;5.010;2023-08-07T17:03:15;101656.59;;;26.06
24714;BMP280;12820;51.580;5.010;2023-08-07T17:08:17;101660.94;;;25.66
24714;BMP280;12820;51.580;5.010;2023-08-07T17:13:19;101652.00;;;25.32
24714;BMP280;12820;51.580;5.010;2023-08-07T17:18:22;101661.59;;;25.02
24714;BMP280;12820;51.580;5.010;2023-08-07T17:23:24;101655.34;;;24.78
24714;BMP280;12820;51.580;5.010;2023-08-07T17:28:27;101661.66;;;24.73
24714;BMP280;12820;51.580;5.010;2023-08-07T17:33:31;101652.09;;;24.61
24714;BMP280;12820;51.580;5.010;2023-08-07T17:38:35;101657.13;;;24.34
24714;BMP280;12820;51.580;5.010;2023-08-07T17:43:38;101653.69;;;24.05
24714;BMP280;12820;51.580;5.010;2023-08-07T17:48:40;101645.56;;;23.82
24714;BMP280;12820;51.580;5.010;2023-08-07T17:53:46;101653.69;;;23.60
24714;BMP280;12820;51.580;5.010;2023-08-07T17:58:49;101652.44;;;23.36
24714;BMP280;12820;51.580;5.010;2023-08-07T18:03:51;101640.69;;;23.16
24714;BMP280;12820;51.580;5.010;2023-08-07T18:08:56;101654.72;;;22.94
24714;BMP280;12820;51.580;5.010;2023-08-07T18:13:59;101641.84;;;22.79
24714;BMP280;12820;51.580;5.010;2023-08-07T18:19:01;101643.75;;;22.59
24714;BMP280;12820;51.580;5.010;2023-08-07T18:24:03;101636.19;;;22.40
24714;BMP280;12820;51.580;5.010;2023-08-07T18:29:05;101632.84;;;22.21
24714;BMP280;12820;51.580;5.010;2023-08-07T18:34:08;101631.25;;;22.02
24714;BMP280;12820;51.580;5.010;2023-08-07T18:39:11;101631.16;;;21.87
24714;BMP280;12820;51.580;5.010;2023-08-07T18:44:13;101624.25;;;21.71
24714;BMP280;12820;51.580;5.010;2023-08-07T18:49:15;101623.97;;;21.59
24714;BMP280;12820;51.580;5.010;2023-08-07T18:54:18;101619.41;;;21.47
24714;BMP280;12820;51.580;5.010;2023-08-07T18:59:20;101621.63;;;21.36
24714;BMP280;12820;51.580;5.010;2023-08-07T19:04:22;101603.53;;;21.23
24714;BMP280;12820;51.580;5.010;2023-08-07T19:09:25;101604.16;;;21.08
24714;BMP280;12820;51.580;5.010;2023-08-07T19:14:27;101599.59;;;20.97
24714;BMP280;12820;51.580;5.010;2023-08-07T19:19:30;101608.84;;;20.81
24714;BMP280;12820;51.580;5.010;2023-08-07T19:24:33;101617.91;;;20.68
24714;BMP280;12820;51.580;5.010;2023-08-07T19:29:35;101619.38;;;20.54
24714;BMP280;12820;51.580;5.010;2023-08-07T19:34:37;101617.41;;;20.41
24714;BMP280;12820;51.580;5.010;2023-08-07T19:39:40;101618.88;;;20.26
24714;BMP280;12820;51.580;5.010;2023-08-07T19:44:42;101616.97;;;20.11
24714;BMP280;12820;51.580;5.010;2023-08-07T19:49:45;101610.81;;;19.95
24714;BMP280;12820;51.580;5.010;2023-08-07T19:54:49;101614.72;;;19.83
24714;BMP280;12820;51.580;5.010;2023-08-07T19:59:51;101612.81;;;19.67
24714;BMP280;12820;51.580;5.010;2023-08-07T20:04:53;101605.72;;;19.54
24714;BMP280;12820;51.580;5.010;2023-08-07T20:09:56;101596.81;;;19.41
24714;BMP280;12820;51.580;5.010;2023-08-07T20:14:58;101594.72;;;19.29
24714;BMP280;12820;51.580;5.010;2023-08-07T20:20:00;101593.50;;;19.17
24714;BMP280;12820;51.580;5.010;2023-08-07T20:25:03;101579.50;;;19.05
24714;BMP280;12820;51.580;5.010;2023-08-07T20:30:06;101588.47;;;18.93
24714;BMP280;12820;51.580;5.010;2023-08-07T20:35:08;101581.22;;;18.83
24714;BMP280;12820;51.580;5.010;2023-08-07T20:40:11;101578.09;;;18.75
24714;BMP280;12820;51.580;5.010;2023-08-07T20:45:14;101578.38;;;18.66
24714;BMP280;12820;51.580;5.010;2023-08-07T20:50:16;101572.66;;;18.60
24714;BMP280;12820;51.580;5.010;2023-08-07T20:55:19;101567.72;;;18.55
24714;BMP280;12820;51.580;5.010;2023-08-07T21:00:21;101562.88;;;18.50
24714;BMP280;12820;51.580;5.010;2023-08-07T21:05:23;101553.78;;;18.43
24714;BMP280;12820;51.580;5.010;2023-08-07T21:10:26;101542.97;;;18.36
24714;BMP280;12820;51.580;5.010;2023-08-07T21:15:28;101527.94;;;18.31
24714;BMP280;12820;51.580;5.010;2023-08-07T21:20:31;101525.50;;;18.26
24714;BMP280;12820;51.580;5.010;2023-08-07T21:25:33;101518.09;;;18.20
24714;BMP280;12820;51.580;5.010;2023-08-07T21:30:35;101525.81;;;18.17
24714;BMP280;12820;51.580;5.010;2023-08-07T21:35:37;101524.38;;;18.11
24714;BMP280;12820;51.580;5.010;2023-08-07T21:40:39;101521.16;;;18.06
24714;BMP280;12820;51.580;5.010;2023-08-07T21:45:42;101516.22;;;18.01
24714;BMP280;12820;51.580;5.010;2023-08-07T21:50:45;101507.84;;;17.98
24714;BMP280;12820;51.580;5.010;2023-08-07T21:55:47;101502.00;;;17.96
24714;BMP280;12820;51.580;5.010;2023-08-07T22:00:49;101503.81;;;17.93
24714;BMP280;12820;51.580;5.010;2023-08-07T22:05:51;101502.97;;;17.92
24714;BMP280;12820;51.580;5.010;2023-08-07T22:10:54;101503.94;;;17.88
24714;BMP280;12820;51.580;5.010;2023-08-07T22:15:56;101503.19;;;17.86
24714;BMP280;12820;51.580;5.010;2023-08-07T22:20:59;101496.53;;;17.82
24714;BMP280;12820;51.580;5.010;2023-08-07T22:26:01;101484.84;;;17.76
24714;BMP280;12820;51.580;5.010;2023-08-07T22:31:03;101500.22;;;17.73
24714;BMP280;12820;51.580;5.010;2023-08-07T22:36:07;101491.84;;;17.69
24714;BMP280;12820;51.580;5.010;2023-08-07T22:41:13;101489.44;;;17.65
24714;BMP280;12820;51.580;5.010;2023-08-07T22:46:16;101482.78;;;17.61
24714;BMP280;12820;51.580;5.010;2023-08-07T22:51:18;101472.75;;;17.58
24714;BMP280;12820;51.580;5.010;2023-08-07T22:56:21;101479.56;;;17.56
24714;BMP280;12820;51.580;5.010;2023-08-07T23:01:23;101476.34;;;17.51
24714;BMP280;12820;51.580;5.010;2023-08-07T23:06:26;101477.31;;;17.47
24714;BMP280;12820;51.580;5.010;2023-08-07T23:11:28;101465.72;;;17.41
24714;BMP280;12820;51.580;5.010;2023-08-07T23:16:30;101456.56;;;17.35
24714;BMP280;12820;51.580;5.010;2023-08-07T23:21:32;101459.25;;;17.31
24714;BMP280;12820;51.580;5.010;2023-08-07T23:26:34;101448.44;;;17.25
24714;BMP280;12820;51.580;5.010;2023-08-07T23:31:37;101446.91;;;17.19
24714;BMP280;12820;51.580;5.010;2023-08-07T23:36:39;101446.22;;;17.14
24714;BMP280;12820;51.580;5.010;2023-08-07T23:41:42;101448.06;;;17.09
24714;BMP280;12820;51.580;5.010;2023-08-07T23:46:44;101438.88;;;17.06
24714;BMP280;12820;51.580;5.010;2023-08-07T23:51:46;101451.69;;;17.03
24714;BMP280;12820;51.580;5.010;2023-08-07T23:56:48;101441.59;;;17.00
